Time;durP1;ratioP1;P1;durP2;ratioP2;P2;SDS_P1;SDS_P2;PMS_P1;PMS_P2;Temp;Humidity;BMP_temperature;BMP_pressure;BME280_temperature;BME280_humidity;BME280_pressure;Samples;Min_cycle;Max_cycle;Signal;HPM_P1;HPM_P2
2022/11/10 00:02:19;;;;;;;10.15;2.70;;;;;;;;;;6195041;23;20580;-66
2022/11/10 00:04:45;;;;;;;12.85;2.53;;;;;;;;;;6246924;23;20154;-66
2022/11/10 00:07:11;;;;;;;14.43;2.47;;;;;;;;;;6219885;23;20116;-66
2022/11/10 00:09:37;;;;;;;15.63;3.28;;;;;;;;;;6246562;22;20450;-66
2022/11/10 00:12:03;;;;;;;7.85;2.53;;;;;;;;;;6246771;23;20016;-66
2022/11/10 00:17:14;;;;;;;20.45;2.55;;;;;;;;;;6220051;23;20383;-66
2022/11/10 00:19:40;;;;;;;5.95;1.73;;;;;;;;;;6219739;23;20342;-66
2022/11/10 00:22:06;;;;;;;12.95;2.92;;;;;;;;;;6219884;23;20020;-66
2022/11/10 00:24:32;;;;;;;10.55;2.58;;;;;;;;;;6246624;23;20373;-66
2022/11/10 00:26:58;;;;;;;9.70;2.10;;;;;;;;;;6219726;23;20450;-66
2022/11/10 00:29:24;;;;;;;14.13;2.20;;;;;;;;;;6219649;23;20446;-66
2022/11/10 00:31:50;;;;;;;10.48;2.15;;;;;;;;;;6219713;23;20347;-66
2022/11/10 00:34:17;;;;;;;9.70;2.13;;;;;;;;;;6219562;23;20020;-66
2022/11/10 00:36:43;;;;;;;11.15;2.17;;;;;;;;;;6246858;23;20122;-66
2022/11/10 00:39:10;;;;;;;20.55;4.18;;;;;;;;;;6246720;23;20454;-66
2022/11/10 00:41:36;;;;;;;11.40;2.10;;;;;;;;;;6246437;23;20085;-66
2022/11/10 00:44:02;;;;;;;16.92;3.10;;;;;;;;;;6246175;23;20020;-66
2022/11/10 00:46:28;;;;;;;12.25;2.42;;;;;;;;;;6246330;23;20019;-66
2022/11/10 00:48:54;;;;;;;15.85;2.53;;;;;;;;;;6219007;23;20066;-66
2022/11/10 00:51:22;;;;;;;20.00;2.88;;;;;;;;;;6246631;23;20043;-66
2022/11/10 00:53:49;;;;;;;16.45;3.78;;;;;;;;;;6219694;23;20027;-66
2022/11/10 00:56:15;;;;;;;13.93;2.60;;;;;;;;;;6246008;23;20023;-66
2022/11/10 00:58:41;;;;;;;13.20;2.30;;;;;;;;;;6246487;23;20057;-66
2022/11/10 01:01:07;;;;;;;10.32;1.92;;;;;;;;;;6219307;23;20023;-66
2022/11/10 01:03:33;;;;;;;15.85;1.80;;;;;;;;;;6219337;23;20020;-66
2022/11/10 01:06:04;;;;;;;10.00;2.00;;;;;;;;;;6219168;23;20027;-66
2022/11/10 01:08:30;;;;;;;10.23;2.10;;;;;;;;;;6219210;23;20020;-66
2022/11/10 01:11:07;;;;;;;12.75;2.47;;;;;;;;;;6219372;23;20016;-66
2022/11/10 01:13:33;;;;;;;13.32;2.60;;;;;;;;;;6246155;23;20027;-66
2022/11/10 01:16:06;;;;;;;13.88;2.17;;;;;;;;;;6245954;23;20020;-67
2022/11/10 01:18:32;;;;;;;;;;;;;;;;;;6246554;23;20016;-66
2022/11/10 01:20:58;;;;;;;12.30;2.58;;;;;;;;;;6219177;23;19915;-66
2022/11/10 01:23:24;;;;;;;17.10;2.60;;;;;;;;;;6219383;23;20016;-66
2022/11/10 01:25:50;;;;;;;14.35;2.60;;;;;;;;;;6219549;23;20118;-66
2022/11/10 01:28:16;;;;;;;15.80;2.92;;;;;;;;;;6219175;23;20008;-67
2022/11/10 01:30:42;;;;;;;8.80;2.22;;;;;;;;;;6246249;23;20008;-66
2022/11/10 01:33:08;;;;;;;15.52;2.13;;;;;;;;;;6219254;23;20012;-67
2022/11/10 01:35:34;;;;;;;13.60;2.38;;;;;;;;;;6245894;23;20018;-66
2022/11/10 01:38:00;;;;;;;13.68;2.30;;;;;;;;;;6219262;23;20027;-66
2022/11/10 01:40:26;;;;;;;9.00;2.70;;;;;;;;;;6246183;23;20012;-66
2022/11/10 01:42:54;;;;;;;9.10;2.03;;;;;;;;;;6246024;23;20017;-66
2022/11/10 01:45:20;;;;;;;8.90;2.20;;;;;;;;;;6219069;23;20020;-66
2022/11/10 01:47:46;;;;;;;14.73;2.30;;;;;;;;;;6245740;23;20424;-66
2022/11/10 01:50:12;;;;;;;12.63;1.90;;;;;;;;;;6219123;23;20090;-66
2022/11/10 01:52:39;;;;;;;10.77;2.13;;;;;;;;;;6246062;23;20050;-66
2022/11/10 01:55:05;;;;;;;18.92;3.75;;;;;;;;;;6218841;23;20395;-66
2022/11/10 01:57:31;;;;;;;17.23;2.40;;;;;;;;;;6218894;23;20020;-66
2022/11/10 01:59:57;;;;;;;15.32;2.78;;;;;;;;;;6245568;23;20023;-66
2022/11/10 02:02:31;;;;;;;26.77;4.95;;;;;;;;;;6218902;23;20024;-66
2022/11/10 02:04:58;;;;;;;11.82;2.15;;;;;;;;;;6245668;23;20455;-66
2022/11/10 02:07:25;;;;;;;7.38;2.28;;;;;;;;;;6244143;23;20544;-66
2022/11/10 02:09:52;;;;;;;11.20;2.42;;;;;;;;;;6218738;23;20012;-66
2022/11/10 02:12:35;;;;;;;12.77;2.20;;;;;;;;;;6218794;23;20016;-66
2022/11/10 02:15:03;;;;;;;9.60;2.55;;;;;;;;;;6218667;23;20028;-66
2022/11/10 02:17:29;;;;;;;15.07;2.38;;;;;;;;;;6218711;23;20024;-66
2022/11/10 02:19:58;;;;;;;9.95;3.15;;;;;;;;;;6218842;23;20012;-66
2022/11/10 02:22:24;;;;;;;14.55;2.58;;;;;;;;;;6245907;23;20012;-66
2022/11/10 02:24:50;;;;;;;11.65;2.67;;;;;;;;;;6245917;23;20024;-66
2022/11/10 02:27:16;;;;;;;14.95;3.47;;;;;;;;;;6245850;23;20008;-68
2022/11/10 02:29:42;;;;;;;13.48;2.50;;;;;;;;;;6218677;23;20499;-68
2022/11/10 02:32:08;;;;;;;9.60;1.90;;;;;;;;;;6245956;23;20331;-68
2022/11/10 02:34:34;;;;;;;20.35;2.72;;;;;;;;;;6218950;23;20077;-68
2022/11/10 02:37:00;;;;;;;10.82;2.40;;;;;;;;;;6218868;23;20020;-68
2022/11/10 02:39:26;;;;;;;10.85;2.45;;;;;;;;;;6245475;23;20020;-68
2022/11/10 02:41:53;;;;;;;9.25;2.40;;;;;;;;;;6245506;23;20027;-68
2022/11/10 02:44:19;;;;;;;8.55;2.75;;;;;;;;;;6218455;23;20084;-68
2022/11/10 02:46:45;;;;;;;20.42;3.08;;;;;;;;;;6218762;23;20320;-68
2022/11/10 02:49:11;;;;;;;13.18;2.58;;;;;;;;;;6218779;23;20019;-68
2022/11/10 02:51:37;;;;;;;10.90;2.45;;;;;;;;;;6245493;23;20008;-68
2022/11/10 02:54:05;;;;;;;11.45;2.25;;;;;;;;;;6218562;23;20077;-68
2022/11/10 02:56:31;;;;;;;16.52;2.95;;;;;;;;;;6245771;23;20087;-68
2022/11/10 02:58:57;;;;;;;11.90;2.60;;;;;;;;;;6218796;23;20016;-69
2022/11/10 03:01:23;;;;;;;17.80;2.65;;;;;;;;;;6218639;23;20092;-69
2022/11/10 03:03:49;;;;;;;16.27;2.22;;;;;;;;;;6218758;23;20024;-69
2022/11/10 03:06:15;;;;;;;18.73;2.53;;;;;;;;;;6245983;23;20020;-69
2022/11/10 03:08:41;;;;;;;16.77;3.95;;;;;;;;;;6245332;22;20065;-69
2022/11/10 03:11:07;;;;;;;19.08;3.13;;;;;;;;;;6219394;23;20438;-69
2022/11/10 03:13:33;;;;;;;20.80;2.90;;;;;;;;;;6220178;23;20096;-69
2022/11/10 03:15:59;;;;;;;12.55;2.47;;;;;;;;;;6247316;23;20030;-69
2022/11/10 03:18:25;;;;;;;16.45;3.72;;;;;;;;;;6220438;23;20016;-69
2022/11/10 03:20:51;;;;;;;15.60;2.83;;;;;;;;;;6247582;23;20066;-69
2022/11/10 03:23:18;;;;;;;18.80;3.13;;;;;;;;;;6220649;23;20035;-69
2022/11/10 03:25:44;;;;;;;13.55;3.10;;;;;;;;;;6247191;23;20023;-69
2022/11/10 03:28:11;;;;;;;20.98;3.05;;;;;;;;;;6220401;23;20016;-69
2022/11/10 03:30:37;;;;;;;23.50;3.05;;;;;;;;;;6220424;23;20012;-69
2022/11/10 03:33:03;;;;;;;8.55;2.30;;;;;;;;;;6247159;23;20047;-69
2022/11/10 03:35:29;;;;;;;16.70;3.40;;;;;;;;;;6220185;23;20514;-69
2022/11/10 03:37:55;;;;;;;18.60;3.00;;;;;;;;;;6220064;23;20012;-69
2022/11/10 03:40:21;;;;;;;10.52;2.35;;;;;;;;;;6247497;23;20085;-69
2022/11/10 03:42:47;;;;;;;24.30;2.83;;;;;;;;;;6220310;23;20027;-69
2022/11/10 03:45:14;;;;;;;16.48;3.42;;;;;;;;;;6219895;23;20020;-69
2022/11/10 03:47:41;;;;;;;9.05;2.30;;;;;;;;;;6246741;23;20514;-69
2022/11/10 03:50:07;;;;;;;25.50;3.15;;;;;;;;;;6220124;23;20381;-69
2022/11/10 03:52:33;;;;;;;21.17;3.42;;;;;;;;;;6245623;23;20012;-69
2022/11/10 03:54:59;;;;;;;20.45;3.25;;;;;;;;;;6220054;23;20055;-68
2022/11/10 03:57:25;;;;;;;15.63;4.20;;;;;;;;;;6218886;23;20347;-69
2022/11/10 03:59:51;;;;;;;17.48;2.70;;;;;;;;;;6218245;23;20073;-69
2022/11/10 04:02:17;;;;;;;18.90;3.13;;;;;;;;;;6219046;23;20044;-69
2022/11/10 04:10:13;;;;;;;16.75;2.83;;;;;;;;;;6219919;23;20067;-69
2022/11/10 04:15:42;;;;;;;34.45;5.40;;;;;;;;;;6186634;23;20025;-69
2022/11/10 04:18:24;;;;;;;28.15;2.92;;;;;;;;;;6184690;23;20037;-69
2022/11/10 04:20:55;;;;;;;19.30;3.55;;;;;;;;;;6184837;23;20064;-69
2022/11/10 04:23:29;;;;;;;17.13;2.70;;;;;;;;;;6186047;23;20092;-69
2022/11/10 04:28:43;;;;;;;19.67;3.33;;;;;;;;;;6185997;23;20462;-69
2022/11/10 04:31:09;;;;;;;22.42;3.00;;;;;;;;;;6184693;23;20017;-69
2022/11/10 04:33:36;;;;;;;18.33;3.50;;;;;;;;;;6184630;23;20079;-69
2022/11/10 04:36:02;;;;;;;18.70;2.70;;;;;;;;;;6186005;23;20013;-69
2022/11/10 04:38:29;;;;;;;17.63;3.05;;;;;;;;;;6184379;23;20021;-69
2022/11/10 04:40:55;;;;;;;19.80;2.92;;;;;;;;;;6184761;23;20017;-69
2022/11/10 04:43:21;;;;;;;14.13;2.75;;;;;;;;;;6186039;23;20021;-69
2022/11/10 04:45:47;;;;;;;17.85;3.15;;;;;;;;;;6186127;23;20024;-70
2022/11/10 04:48:13;;;;;;;12.50;3.40;;;;;;;;;;6184304;23;20024;-69
2022/11/10 04:50:39;;;;;;;18.77;3.42;;;;;;;;;;6184263;23;20016;-69
2022/11/10 04:53:05;;;;;;;14.38;2.80;;;;;;;;;;6184604;23;20017;-69
2022/11/10 04:55:31;;;;;;;13.43;2.63;;;;;;;;;;6184244;23;20343;-69
2022/11/10 04:57:57;;;;;;;17.73;2.80;;;;;;;;;;6186244;23;20071;-69
2022/11/10 05:00:23;;;;;;;14.70;2.90;;;;;;;;;;6186007;23;20013;-69
2022/11/10 05:02:49;;;;;;;16.15;2.60;;;;;;;;;;6184253;23;20021;-69
2022/11/10 05:05:15;;;;;;;16.17;2.58;;;;;;;;;;6185608;23;20017;-69
2022/11/10 05:07:41;;;;;;;21.50;3.40;;;;;;;;;;6185626;23;20392;-69
2022/11/10 05:10:07;;;;;;;15.95;2.80;;;;;;;;;;6184081;23;20016;-69
2022/11/10 05:12:34;;;;;;;19.17;2.72;;;;;;;;;;6186061;23;20071;-69
2022/11/10 05:15:00;;;;;;;24.90;4.30;;;;;;;;;;6159364;23;20017;-69
2022/11/10 05:17:26;;;;;;;21.20;2.80;;;;;;;;;;6184451;23;20013;-69
2022/11/10 05:19:52;;;;;;;14.82;2.80;;;;;;;;;;6186062;23;20017;-69
2022/11/10 05:22:18;;;;;;;32.60;4.18;;;;;;;;;;6184176;23;20139;-69
2022/11/10 05:24:44;;;;;;;14.73;3.40;;;;;;;;;;6184388;23;20064;-69
2022/11/10 05:27:10;;;;;;;20.83;2.95;;;;;;;;;;6184152;23;20017;-69
2022/11/10 05:29:36;;;;;;;23.20;3.53;;;;;;;;;;6183941;23;20048;-70
2022/11/10 05:32:02;;;;;;;26.05;3.42;;;;;;;;;;6185799;23;20019;-69
2022/11/10 05:34:28;;;;;;;18.65;3.53;;;;;;;;;;6159651;23;20100;-69
2022/11/10 05:36:54;;;;;;;19.17;2.80;;;;;;;;;;6185683;23;20344;-69
2022/11/10 05:39:20;;;;;;;24.33;3.50;;;;;;;;;;6185749;23;20021;-69
2022/11/10 05:41:46;;;;;;;20.77;3.17;;;;;;;;;;6184060;23;20023;-69
2022/11/10 05:44:12;;;;;;;20.50;3.30;;;;;;;;;;6185249;23;20072;-69
2022/11/10 05:46:38;;;;;;;19.15;3.17;;;;;;;;;;6183697;23;20020;-69
2022/11/10 05:49:04;;;;;;;21.15;2.88;;;;;;;;;;6184251;23;20020;-69
2022/11/10 05:51:30;;;;;;;23.85;3.30;;;;;;;;;;6159078;23;20451;-69
2022/11/10 05:53:56;;;;;;;16.80;3.50;;;;;;;;;;6184479;23;20339;-69
2022/11/10 05:56:22;;;;;;;19.33;3.45;;;;;;;;;;6183703;23;20064;-69
2022/11/10 05:58:48;;;;;;;26.58;3.72;;;;;;;;;;6183847;23;20023;-69
2022/11/10 06:01:14;;;;;;;23.67;3.20;;;;;;;;;;6185434;23;20013;-69
2022/11/10 06:03:40;;;;;;;16.42;3.22;;;;;;;;;;6185453;23;20019;-69
2022/11/10 06:06:07;;;;;;;28.33;3.97;;;;;;;;;;6158926;23;20017;-69
2022/11/10 06:08:33;;;;;;;15.40;3.25;;;;;;;;;;6182958;23;20040;-69
2022/11/10 06:10:59;;;;;;;17.63;3.45;;;;;;;;;;6183114;23;20013;-69
2022/11/10 06:13:25;;;;;;;18.92;3.30;;;;;;;;;;6194783;23;20088;-69
2022/11/10 06:15:51;;;;;;;18.40;3.72;;;;;;;;;;6217850;23;20024;-69
2022/11/10 06:18:18;;;;;;;18.23;3.85;;;;;;;;;;6193282;23;20020;-69
2022/11/10 06:20:46;;;;;;;23.35;3.42;;;;;;;;;;6242997;23;20062;-69
2022/11/10 06:23:13;;;;;;;33.45;3.65;;;;;;;;;;6242318;23;20023;-69
2022/11/10 06:25:40;;;;;;;19.88;3.10;;;;;;;;;;6243089;23;20020;-69
2022/11/10 06:28:07;;;;;;;19.63;3.58;;;;;;;;;;6243799;23;20008;-69
2022/11/10 06:30:34;;;;;;;25.67;4.13;;;;;;;;;;6243127;23;20418;-68
2022/11/10 06:33:00;;;;;;;20.73;3.53;;;;;;;;;;6191555;23;20020;-69
2022/11/10 06:35:26;;;;;;;19.20;3.28;;;;;;;;;;6243437;23;20020;-69
2022/11/10 06:37:57;;;;;;;23.05;3.65;;;;;;;;;;6216184;23;20112;-69
2022/11/10 06:40:23;;;;;;;24.15;3.17;;;;;;;;;;6243501;23;20342;-69
2022/11/10 06:42:49;;;;;;;23.30;4.43;;;;;;;;;;6243851;23;20016;-69
2022/11/10 06:45:15;;;;;;;25.20;3.30;;;;;;;;;;6216531;23;20030;-69
2022/11/10 06:47:41;;;;;;;28.25;3.42;;;;;;;;;;6245078;23;20062;-69
2022/11/10 06:50:08;;;;;;;23.40;3.85;;;;;;;;;;6218271;23;20138;-69
2022/11/10 06:52:35;;;;;;;21.45;3.30;;;;;;;;;;6218437;23;20051;-69
2022/11/10 06:55:01;;;;;;;24.05;3.70;;;;;;;;;;6218279;23;20022;-69
2022/11/10 06:57:27;;;;;;;25.88;3.70;;;;;;;;;;6218151;23;20347;-69
2022/11/10 06:59:53;;;;;;;29.20;3.80;;;;;;;;;;6245022;23;20119;-69
2022/11/10 07:02:20;;;;;;;23.63;4.38;;;;;;;;;;6219170;23;20450;-69
2022/11/10 07:04:46;;;;;;;22.90;3.28;;;;;;;;;;6218189;23;20016;-69
2022/11/10 07:07:13;;;;;;;23.83;4.05;;;;;;;;;;6218425;23;20016;-69
2022/11/10 07:09:40;;;;;;;31.92;6.00;;;;;;;;;;6218857;23;20358;-69
2022/11/10 07:12:07;;;;;;;16.40;2.90;;;;;;;;;;6245288;23;20024;-68
2022/11/10 07:14:33;;;;;;;25.40;4.47;;;;;;;;;;6218166;23;20082;-69
2022/11/10 07:16:59;;;;;;;24.02;3.97;;;;;;;;;;6245579;23;20020;-70
2022/11/10 07:19:25;;;;;;;27.65;3.95;;;;;;;;;;6243654;23;20019;-69
2022/11/10 07:21:51;;;;;;;23.58;3.70;;;;;;;;;;6244913;23;20012;-69
2022/11/10 07:24:17;;;;;;;19.15;3.90;;;;;;;;;;6244842;23;20026;-70
2022/11/10 07:26:44;;;;;;;24.35;3.90;;;;;;;;;;6218387;23;20012;-69
2022/11/10 07:29:10;;;;;;;31.42;4.50;;;;;;;;;;6217908;23;20020;-69
2022/11/10 07:31:36;;;;;;;19.52;4.05;;;;;;;;;;6218025;23;20028;-68
2022/11/10 07:34:02;;;;;;;20.92;3.10;;;;;;;;;;6244945;23;20022;-73
2022/11/10 07:36:28;;;;;;;22.42;3.40;;;;;;;;;;6218255;23;20450;-69
2022/11/10 07:38:54;;;;;;;25.98;3.85;;;;;;;;;;6216495;23;20331;-69
2022/11/10 07:41:21;;;;;;;19.33;4.20;;;;;;;;;;6217134;23;20051;-70
2022/11/10 07:43:47;;;;;;;26.70;3.90;;;;;;;;;;6217240;23;20016;-70
2022/11/10 07:46:13;;;;;;;27.15;3.75;;;;;;;;;;6219151;23;20016;-70
2022/11/10 07:48:39;;;;;;;22.25;3.38;;;;;;;;;;6219499;23;20016;-70
2022/11/10 07:51:05;;;;;;;19.75;2.97;;;;;;;;;;6219738;23;20047;-70
2022/11/10 07:53:31;;;;;;;23.85;3.55;;;;;;;;;;6219894;23;20012;-69
2022/11/10 07:55:58;;;;;;;20.33;3.47;;;;;;;;;;6219770;23;20016;-70
2022/11/10 07:58:24;;;;;;;28.55;4.75;;;;;;;;;;6219194;23;20020;-70
2022/11/10 08:00:50;;;;;;;19.83;4.32;;;;;;;;;;6219663;23;20452;-70
2022/11/10 08:03:17;;;;;;;18.90;3.28;;;;;;;;;;6219582;23;20098;-69
2022/11/10 08:05:43;;;;;;;29.98;4.30;;;;;;;;;;6246435;23;20379;-70
2022/11/10 08:08:10;;;;;;;23.75;3.78;;;;;;;;;;6193971;23;20066;-69
2022/11/10 08:10:36;;;;;;;26.95;3.53;;;;;;;;;;6219791;23;20016;-69
2022/11/10 08:13:06;;;;;;;28.13;3.47;;;;;;;;;;6246300;23;20012;-69
2022/11/10 08:15:33;;;;;;;19.30;3.17;;;;;;;;;;6219360;23;20024;-70
2022/11/10 08:18:16;;;;;;;21.10;3.22;;;;;;;;;;6219842;23;20051;-70
2022/11/10 08:20:42;;;;;;;29.80;3.50;;;;;;;;;;6246869;23;20012;-70
2022/11/10 08:23:08;;;;;;;24.60;3.58;;;;;;;;;;6219491;23;20043;-70
2022/11/10 08:25:36;;;;;;;29.52;3.63;;;;;;;;;;6219414;23;20023;-70
2022/11/10 08:28:03;;;;;;;21.08;4.25;;;;;;;;;;6219481;23;20028;-70
2022/11/10 08:30:29;;;;;;;26.27;3.53;;;;;;;;;;6246184;23;20058;-70
2022/11/10 08:32:56;;;;;;;26.23;4.28;;;;;;;;;;6219490;23;20430;-70
2022/11/10 08:35:27;;;;;;;21.45;3.17;;;;;;;;;;6246791;23;20338;-70
2022/11/10 08:37:53;;;;;;;30.50;3.80;;;;;;;;;;6219101;23;20020;-70
2022/11/10 08:40:22;;;;;;;32.58;6.00;;;;;;;;;;6219357;23;20020;-70
2022/11/10 08:42:56;;;;;;;26.48;4.88;;;;;;;;;;6219331;23;21054;-70
2022/11/10 08:45:22;;;;;;;23.58;3.10;;;;;;;;;;6219199;23;20020;-70
2022/11/10 08:47:55;;;;;;;21.80;3.92;;;;;;;;;;6219619;23;20019;-70
2022/11/10 08:50:21;;;;;;;25.20;3.50;;;;;;;;;;6219408;23;20016;-70
2022/11/10 08:52:48;;;;;;;23.60;2.92;;;;;;;;;;6219126;23;20015;-70
2022/11/10 08:55:14;;;;;;;28.95;4.07;;;;;;;;;;6219540;23;20070;-70
2022/11/10 08:57:40;;;;;;;20.40;3.33;;;;;;;;;;6246072;23;20089;-70
2022/11/10 09:00:06;;;;;;;30.30;3.83;;;;;;;;;;6246220;23;20423;-70
2022/11/10 09:02:32;;;;;;;24.83;3.30;;;;;;;;;;6219340;23;20012;-70
2022/11/10 09:04:58;;;;;;;25.85;3.90;;;;;;;;;;6246248;23;20054;-70
2022/11/10 09:07:24;;;;;;;24.40;4.47;;;;;;;;;;6219453;23;20012;-70
2022/11/10 09:09:50;;;;;;;19.00;3.35;;;;;;;;;;6219184;23;20016;-70
2022/11/10 09:12:16;;;;;;;27.30;3.60;;;;;;;;;;6246163;23;20012;-70
2022/11/10 09:14:42;;;;;;;25.58;4.68;;;;;;;;;;6245912;23;20066;-70
2022/11/10 09:17:09;;;;;;;23.25;3.70;;;;;;;;;;6219508;23;20427;-70
2022/11/10 09:19:35;;;;;;;19.50;3.58;;;;;;;;;;6219229;23;20513;-74
2022/11/10 09:22:01;;;;;;;22.23;3.53;;;;;;;;;;6219327;23;20541;-77
2022/11/10 09:24:27;;;;;;;25.63;3.67;;;;;;;;;;6219187;23;20043;-70
2022/11/10 09:26:53;;;;;;;28.42;4.00;;;;;;;;;;6219308;23;20079;-70
2022/11/10 09:29:20;;;;;;;27.42;4.10;;;;;;;;;;6244654;23;20012;-70
2022/11/10 09:31:46;;;;;;;28.80;4.22;;;;;;;;;;6219509;23;20086;-70
2022/11/10 09:34:12;;;;;;;18.13;3.53;;;;;;;;;;6217795;23;20593;-71
2022/11/10 09:36:39;;;;;;;22.67;4.00;;;;;;;;;;6216921;23;20050;-71
2022/11/10 09:39:06;;;;;;;27.58;5.20;;;;;;;;;;6244330;23;20016;-71
2022/11/10 09:41:32;;;;;;;24.08;5.38;;;;;;;;;;6216723;23;20051;-71
2022/11/10 09:44:02;;;;;;;22.65;4.32;;;;;;;;;;6218385;23;20401;-70
2022/11/10 09:46:32;;;;;;;27.48;4.40;;;;;;;;;;6218252;23;20024;-70
2022/11/10 09:49:00;;;;;;;27.80;4.07;;;;;;;;;;6245348;23;20320;-70
2022/11/10 09:51:33;;;;;;;25.05;4.55;;;;;;;;;;6218370;23;20016;-71
2022/11/10 09:54:02;;;;;;;29.95;5.68;;;;;;;;;;6218538;23;20016;-70
2022/11/10 09:56:36;;;;;;;24.25;4.75;;;;;;;;;;6218708;23;20016;-71
2022/11/10 09:59:25;;;;;;;18.38;4.65;;;;;;;;;;6218848;23;20012;-71
2022/11/10 10:01:57;;;;;;;23.08;5.30;;;;;;;;;;6219033;23;20070;-71
2022/11/10 10:04:23;;;;;;;24.00;5.53;;;;;;;;;;6245730;23;20016;-70
2022/11/10 10:06:58;;;;;;;28.02;4.65;;;;;;;;;;6245772;23;20016;-70
2022/11/10 10:09:41;;;;;;;19.40;5.05;;;;;;;;;;6218823;23;20091;-71
2022/11/10 10:12:44;;;;;;;31.25;5.38;;;12.50;99.90;;;;;;6218970;23;20016;-70
2022/11/10 10:15:43;;;;;;;25.42;5.35;;;12.60;99.90;;;;;;6245414;23;20099;-70
2022/11/10 10:18:13;;;;;;;24.40;4.45;;;;;;;;;;6155153;23;20026;-70
2022/11/10 10:20:42;;;;;;;31.65;4.28;;;;;;;;;;6219597;23;20086;-70
2022/11/10 10:23:21;;;;;;;24.92;4.85;;;;;;;;;;6220080;23;20462;-71
2022/11/10 10:25:47;;;;;;;22.83;4.95;;;;;;;;;;6220537;23;20023;-71
2022/11/10 10:28:19;;;;;;;21.20;4.25;;;;;;;;;;6247523;23;20016;-70
2022/11/10 10:30:45;;;;;;;23.10;4.70;;;;;;;;;;6220673;23;20019;-72
2022/11/10 10:33:16;;;;;;;18.48;3.72;;;;;;;;;;6220775;23;20091;-71
2022/11/10 10:35:43;;;;;;;15.05;3.92;;;;;;;;;;6220500;23;20016;-69
2022/11/10 10:38:15;;;;;;;19.33;4.60;;;;;;;;;;6247732;23;20025;-69
2022/11/10 10:40:42;;;;;;;28.15;5.88;;;;;;;;;;6220334;23;20070;-69
2022/11/10 10:43:08;;;;;;;23.45;4.70;;;;;;;;;;6247341;23;20023;-69
2022/11/10 10:45:38;;;;;;;20.58;5.57;;;;;;;;;;6219821;23;20016;-69
2022/11/10 10:48:22;;;;;;;23.02;4.32;;;;;;;;;;6196069;23;20016;-70
2022/11/10 10:50:49;;;;;;;16.83;4.78;;;;;;;;;;6247026;23;20023;-70
2022/11/10 10:53:24;;;;;;;31.75;6.20;;;;;;;;;;6220217;23;20088;-70
2022/11/10 10:56:02;;;;;;;19.80;5.07;;;;;;;;;;6219925;23;20038;-70
2022/11/10 10:58:30;;;;;;;26.67;5.25;;;;;;;;;;6220372;23;20020;-70
2022/11/10 11:01:02;;;;;;;25.17;5.13;;;;;;;;;;6247171;23;20442;-70
2022/11/10 11:03:31;;;;;;;25.58;5.60;;;;;;;;;;6247447;23;20446;-70
2022/11/10 11:06:01;;;;;;;21.92;6.25;;;;;;;;;;6220381;23;20016;-70
2022/11/10 11:08:27;;;;;;;29.85;6.57;;;;;;;;;;6220392;23;20564;-70
2022/11/10 11:10:53;;;;;;;30.95;6.22;;;;;;;;;;6220507;23;20020;-69
2022/11/10 11:13:19;;;;;;;35.80;6.45;;;;;;;;;;6220425;23;20395;-69
2022/11/10 11:15:56;;;;;;;28.73;6.25;;;;;;;;;;6220193;23;20028;-69
2022/11/10 11:18:23;;;;;;;23.75;5.75;;;;;;;;;;6247509;23;20312;-69
2022/11/10 11:21:15;;;;;;;28.40;7.28;;;;;;;;;;6246962;23;20083;-70
2022/11/10 11:23:50;;;;;;;24.95;5.93;;;;;;;;;;6175203;23;20103;-70
2022/11/10 11:26:39;;;;;;;28.15;5.75;;;;;;;;;;6220154;23;20473;-70
2022/11/10 11:29:27;;;;;;;29.85;6.00;;;;;;;;;;6219917;23;20012;-70
2022/11/10 11:31:56;;;;;;;28.20;5.72;;;;;;;;;;6219703;23;20039;-70
2022/11/10 11:34:28;;;;;;;22.63;5.13;;;;;;;;;;6220058;23;20338;-70
2022/11/10 11:36:54;;;;;;;33.00;5.93;;;;;;;;;;6219649;23;20016;-70
2022/11/10 11:39:39;;;;;;;21.88;5.85;;;;;;;;;;6219584;23;20028;-70
2022/11/10 11:42:20;;;;;;;30.10;5.93;;;;;;;;;;6219363;23;20098;-70
2022/11/10 11:45:04;;;;;;;28.83;5.32;;;;;;;;;;6219581;23;20095;-70
2022/11/10 11:47:41;;;;;;;26.15;6.13;;;;;;;;;;6220259;23;20008;-70
2022/11/10 11:50:15;;;;;;;34.80;6.38;;;;;;;;;;6220162;23;20066;-70
2022/11/10 11:52:54;;;;;;;25.55;5.95;;;;;;;;;;6246508;23;20387;-70
2022/11/10 11:55:20;;;;;;;21.65;5.13;;;;;;;;;;6219912;23;20217;-67
2022/11/10 11:58:16;;;;;;;22.95;4.72;;;12.50;99.90;;;;;;6219577;23;20074;-67
2022/11/10 12:00:45;;;;;;;32.08;5.60;;;;;;;;;;6219410;23;20088;-67
2022/11/10 12:03:24;;;;;;;23.95;4.82;;;;;;;;;;6219635;23;20055;-67
2022/11/10 12:05:56;;;;;;;23.35;4.25;;;;;;;;;;6219888;23;20020;-67
2022/11/10 12:08:28;;;;;;;23.23;5.55;;;;;;;;;;6220185;23;20016;-67
2022/11/10 12:11:03;;;;;;;30.15;4.55;;;;;;;;;;6246799;23;20035;-67
2022/11/10 12:13:29;;;;;;;27.67;4.55;;;;;;;;;;6246471;23;20020;-67
2022/11/10 12:16:07;;;;;;;27.70;4.57;;;;;;;;;;6219811;23;20016;-67
2022/11/10 12:18:37;;;;;;;26.95;4.85;;;;;;;;;;6246974;23;20016;-68
2022/11/10 12:21:24;;;;;;;20.38;5.32;;;;;;;;;;6245326;23;20016;-67
2022/11/10 12:23:56;;;;;;;30.95;5.22;;;;;;;;;;6246107;23;20061;-67
2022/11/10 12:26:25;;;;;;;18.02;4.28;;;;;;;;;;6219129;23;20028;-68
2022/11/10 12:29:04;;;;;;;25.88;5.25;;;;;;;;;;6219301;23;20312;-67
2022/11/10 12:31:34;;;;;;;27.08;4.35;;;;;;;;;;6219011;23;20023;-67
2022/11/10 12:34:12;;;;;;;26.63;4.90;;;;;;;;;;6218919;23;20373;-67
2022/11/10 12:36:39;;;;;;;17.10;4.00;;;;;;;;;;6219088;23;20012;-67
2022/11/10 12:39:25;;;;;;;20.42;4.65;;;;;;;;;;6219190;23;20320;-67
2022/11/10 12:41:58;;;;;;;30.70;5.10;;;;;;;;;;6159123;23;20020;-67
2022/11/10 12:44:30;;;;;;;20.08;4.05;;;;;;;;;;6245688;23;20016;-67
2022/11/10 12:46:57;;;;;;;35.10;4.72;;;;;;;;;;6219158;23;20016;-67
2022/11/10 12:49:26;;;;;;;24.45;4.07;;;;;;;;;;6219212;23;20012;-67
2022/11/10 12:52:05;;;;;;;23.23;4.50;;;;;;;;;;6244698;23;20008;-67
2022/11/10 12:54:31;;;;;;;26.02;4.68;;;;;;;;;;6219098;23;20030;-68
2022/11/10 12:57:00;;;;;;;28.50;4.97;;;;;;;;;;6219232;23;20020;-68
2022/11/10 12:59:29;;;;;;;29.35;5.25;;;;;;;;;;6246048;23;20023;-68
2022/11/10 13:02:01;;;;;;;22.80;4.35;;;;;;;;;;6245622;23;20346;-68
2022/11/10 13:04:27;;;;;;;32.20;5.13;;;;;;;;;;6245568;23;20017;-68
2022/11/10 13:06:56;;;;;;;25.27;4.22;;;;;;;;;;6218831;23;20047;-67
2022/11/10 13:09:23;;;;;;;19.50;4.03;;;;;;;;;;6218794;23;20023;-68
2022/11/10 13:12:22;;;;;;;31.23;4.65;;;;;;;;;;6243952;23;20023;-72
2022/11/10 13:14:49;;;;;;;29.92;6.10;;;;;;;;;;6153887;23;20026;-68
2022/11/10 13:17:27;;;;;;;25.38;4.50;;;;;;;;;;6218484;23;20023;-68
2022/11/10 13:19:59;;;;;;;34.03;4.72;;;;;;;;;;6220189;23;20020;-68
2022/11/10 13:22:35;;;;;;;26.77;4.05;;;;;;;;;;6218220;23;20020;-68
2022/11/10 13:25:35;;;;;;;24.08;4.45;;;12.80;99.90;;;;;;6218007;23;20339;-67
2022/11/10 13:28:02;;;;;;;26.70;4.85;;;;;;;;;;6244915;23;20008;-68
2022/11/10 13:30:45;;;;;;;22.55;3.60;;;;;;;;;;6218216;23;20019;-68
2022/11/10 13:33:23;;;;;;;33.35;5.50;;;;;;;;;;6218168;23;20023;-68
2022/11/10 13:35:51;;;;;;;30.80;5.85;;;;;;;;;;6218263;23;20020;-67
2022/11/10 13:38:33;;;;;;;29.85;5.28;;;;;;;;;;6244912;23;20023;-67
2022/11/10 13:41:17;;;;;;;25.92;4.03;;;;;;;;;;6218095;23;20016;-68
2022/11/10 13:43:51;;;;;;;27.63;4.32;;;;;;;;;;6215792;23;20058;-68
2022/11/10 13:46:18;;;;;;;27.00;5.13;;;;;;;;;;6241377;23;20194;-70
2022/11/10 13:48:49;;;;;;;27.67;4.25;;;;;;;;;;6243943;23;20023;-70
2022/11/10 13:51:19;;;;;;;32.83;5.33;;;;;;;;;;6244007;23;20023;-71
2022/11/10 13:53:54;;;;;;;31.05;4.60;;;;;;;;;;6217611;23;20020;-70
2022/11/10 13:56:39;;;;;;;22.35;5.25;;;;;;;;;;6218199;23;20095;-70
2022/11/10 13:59:16;;;;;;;35.50;4.82;;;;;;;;;;6217939;23;20433;-70
2022/11/10 14:01:42;;;;;;;30.85;4.45;;;;;;;;;;6217502;23;20079;-70
2022/11/10 14:04:08;;;;;;;25.85;4.88;;;;;;;;;;6217045;23;20016;-70
2022/11/10 14:06:46;;;;;;;30.27;6.38;;;;;;;;;;6216769;23;20079;-70
2022/11/10 14:09:18;;;;;;;22.38;4.47;;;;;;;;;;6217576;23;20518;-70
2022/11/10 14:11:54;;;;;;;23.25;4.15;;;;;;;;;;6217780;23;20331;-70
2022/11/10 14:14:29;;;;;;;29.20;4.50;;;;;;;;;;6217045;23;20028;-70
2022/11/10 14:16:56;;;;;;;28.08;5.10;;;;;;;;;;6217260;23;20350;-70
2022/11/10 14:19:35;;;;;;;30.30;5.43;;;;;;;;;;6217054;23;20052;-70
2022/11/10 14:22:28;;;;;;;27.77;4.07;;;;;;;;;;6242713;23;20091;-70
2022/11/10 14:24:59;;;;;;;32.25;4.25;;;;;;;;;;6188947;23;20019;-70
2022/11/10 14:27:26;;;;;;;23.23;5.72;;;;;;;;;;6216443;23;20016;-71
2022/11/10 14:30:03;;;;;;;22.80;4.68;;;;;;;;;;6244661;23;20435;-70
2022/11/10 14:32:30;;;;;;;22.83;4.15;;;;;;;;;;6217785;23;20022;-70
2022/11/10 14:34:56;;;;;;;28.48;3.90;;;;;;;;;;6244447;23;20023;-70
2022/11/10 14:37:24;;;;;;;30.48;4.82;;;;;;;;;;6217345;23;20076;-70
2022/11/10 14:39:54;;;;;;;22.33;4.07;;;;;;;;;;6217664;23;20419;-70
2022/11/10 14:42:23;;;;;;;31.10;4.70;;;;;;;;;;6217391;23;20020;-70
2022/11/10 14:44:49;;;;;;;24.55;4.75;;;;;;;;;;6244776;23;20055;-70
2022/11/10 14:47:22;;;;;;;24.35;4.22;;;;;;;;;;6217436;23;20012;-70
2022/11/10 14:50:02;;;;;;;28.08;4.32;;;;;;;;;;6217659;23;20024;-70
2022/11/10 14:52:28;;;;;;;16.10;3.50;;;;;;;;;;6217671;23;20087;-70
2022/11/10 14:54:54;;;;;;;20.38;4.45;;;;;;;;;;6217660;23;20091;-70